Time;durP1;ratioP1;P1;durP2;ratioP2;P2;SDS_P1;SDS_P2;PMS_P1;PMS_P2;Temp;Humidity;BMP_temperature;BMP_pressure;BME280_temperature;BME280_humidity;BME280_pressure;Samples;Min_cycle;Max_cycle;Signal;HPM_P1;HPM_P2
2023/12/13 00:01:24;;;;;;;2.40;0.43;;;7.10;99.90;;;;;;5024408;28;20017;-72
2023/12/13 00:03:50;;;;;;;2.45;0.75;;;7.00;99.90;;;;;;5012463;28;20116;-71
2023/12/13 00:06:16;;;;;;;0.40;0.38;;;6.90;99.90;;;;;;5024095;28;20039;-72
2023/12/13 00:08:42;;;;;;;4.13;0.28;;;6.90;99.90;;;;;;5025273;28;20426;-72
2023/12/13 00:11:08;;;;;;;0.30;0.30;;;6.90;99.90;;;;;;5010641;28;20033;-72
2023/12/13 00:13:34;;;;;;;2.50;0.95;;;7.00;99.90;;;;;;5023850;28;20038;-72
2023/12/13 00:16:01;;;;;;;1.27;0.50;;;7.00;99.90;;;;;;5012120;28;20040;-72
2023/12/13 00:18:26;;;;;;;1.95;0.82;;;7.10;99.90;;;;;;5020851;28;20064;-71
2023/12/13 00:20:52;;;;;;;1.25;0.43;;;7.30;99.90;;;;;;5011644;28;20812;-71
2023/12/13 00:23:18;;;;;;;0.98;0.60;;;7.50;99.90;;;;;;5027464;28;20116;-73
2023/12/13 00:25:43;;;;;;;0.68;0.40;;;7.50;99.90;;;;;;5011328;28;20543;-72
2023/12/13 00:28:09;;;;;;;1.23;0.63;;;7.70;99.90;;;;;;5020089;28;21065;-71
2023/12/13 00:30:35;;;;;;;1.08;0.60;;;7.80;99.90;;;;;;5007130;28;20036;-71
2023/12/13 00:33:01;;;;;;;1.75;1.10;;;7.70;99.90;;;;;;5024484;28;20029;-73
2023/12/13 00:35:26;;;;;;;1.17;0.50;;;7.70;99.90;;;;;;5012235;28;20040;-72
2023/12/13 00:37:52;;;;;;;1.38;0.35;;;7.60;99.90;;;;;;5020554;28;20033;-73
2023/12/13 00:40:18;;;;;;;0.85;0.45;;;7.60;99.90;;;;;;5013838;28;20457;-73
2023/12/13 00:42:44;;;;;;;0.50;0.50;;;7.50;99.90;;;;;;5026434;28;20021;-73
2023/12/13 00:45:10;;;;;;;0.57;0.32;;;7.50;99.90;;;;;;5015674;28;20033;-73
2023/12/13 00:47:36;;;;;;;2.90;0.80;;;7.50;99.90;;;;;;5024409;28;20048;-72
2023/12/13 00:50:01;;;;;;;4.70;0.88;;;7.50;99.90;;;;;;5024244;28;20025;-72
2023/12/13 00:52:27;;;;;;;0.52;0.20;;;7.60;99.90;;;;;;5009072;28;20063;-72
2023/12/13 00:54:53;;;;;;;0.55;0.32;;;7.60;99.90;;;;;;5025213;28;20029;-72
2023/12/13 00:57:19;;;;;;;0.77;0.40;;;7.50;99.90;;;;;;5011867;28;20029;-72
2023/12/13 00:59:45;;;;;;;2.10;0.68;;;7.50;99.90;;;;;;5022285;28;20040;-72
2023/12/13 01:02:10;;;;;;;0.35;0.32;;;7.50;99.90;;;;;;5013710;28;20037;-71
2023/12/13 01:04:38;;;;;;;4.65;0.47;;;7.50;99.90;;;;;;5017971;28;20051;-72
2023/12/13 01:07:03;;;;;;;0.30;0.20;;;7.50;99.90;;;;;;5008894;28;20033;-71
2023/12/13 01:09:29;;;;;;;0.45;0.45;;;7.50;99.90;;;;;;5025308;28;20030;-72
2023/12/13 01:11:55;;;;;;;0.93;0.50;;;7.40;99.90;;;;;;5009718;28;20129;-72
2023/12/13 01:14:20;;;;;;;0.73;0.73;;;7.40;99.90;;;;;;5025662;28;20029;-72
2023/12/13 01:16:46;;;;;;;0.17;0.17;;;7.30;99.90;;;;;;5011122;28;20064;-72
2023/12/13 01:19:11;;;;;;;4.30;0.70;;;7.20;99.90;;;;;;5022182;28;20520;-73
2023/12/13 01:21:37;;;;;;;0.90;0.43;;;7.20;99.90;;;;;;5011984;28;20669;-73
2023/12/13 01:24:03;;;;;;;0.70;0.32;;;7.10;99.90;;;;;;5021243;28;20152;-72
2023/12/13 01:26:29;;;;;;;3.30;0.35;;;7.10;99.90;;;;;;5020229;28;20041;-72
2023/12/13 01:28:54;;;;;;;0.30;0.30;;;7.00;99.90;;;;;;5015840;28;20167;-72
2023/12/13 01:31:20;;;;;;;2.55;0.90;;;7.00;99.90;;;;;;5019118;28;20037;-72
2023/12/13 01:33:45;;;;;;;3.30;0.28;;;7.00;99.90;;;;;;5008072;28;20055;-72
2023/12/13 01:36:11;;;;;;;0.20;0.20;;;7.00;99.90;;;;;;5025506;28;20338;-72
2023/12/13 01:38:37;;;;;;;1.15;0.50;;;7.00;99.90;;;;;;5009505;28;20091;-72
2023/12/13 01:41:03;;;;;;;0.20;0.20;;;6.90;99.90;;;;;;5034229;28;20037;-73
2023/12/13 01:43:29;;;;;;;0.55;0.50;;;7.00;99.90;;;;;;5024423;28;20036;-73
2023/12/13 01:45:57;;;;;;;0.40;0.40;;;7.00;99.90;;;;;;5027828;28;20489;-73
2023/12/13 01:48:26;;;;;;;1.48;0.73;;;7.00;99.90;;;;;;5019486;28;20152;-71
2023/12/13 01:50:52;;;;;;;0.47;0.47;;;7.00;99.90;;;;;;5024916;28;20022;-71
2023/12/13 01:53:19;;;;;;;1.23;0.73;;;7.10;99.90;;;;;;5016678;28;20743;-72
2023/12/13 01:55:45;;;;;;;0.75;0.40;;;7.10;99.90;;;;;;5029272;28;20029;-72
2023/12/13 01:58:12;;;;;;;0.45;0.30;;;7.10;99.90;;;;;;5011361;28;20041;-72
2023/12/13 02:00:41;;;;;;;0.45;0.45;;;7.10;99.90;;;;;;5028691;28;20037;-73
2023/12/13 02:03:08;;;;;;;1.10;0.63;;;7.00;99.90;;;;;;5017044;28;20139;-71
2023/12/13 02:05:35;;;;;;;1.58;0.70;;;6.90;99.90;;;;;;5026359;28;20033;-71
2023/12/13 02:08:03;;;;;;;3.08;0.88;;;6.70;99.90;;;;;;5022641;28;20038;-73
2023/12/13 02:10:28;;;;;;;1.50;0.63;;;6.60;99.90;;;;;;5026043;28;20041;-71
2023/12/13 02:12:54;;;;;;;2.22;0.65;;;6.60;99.90;;;;;;5025283;28;20033;-71
2023/12/13 02:15:21;;;;;;;0.20;0.20;;;6.50;99.90;;;;;;5018635;28;20643;-71
2023/12/13 02:17:49;;;;;;;1.35;0.77;;;6.60;99.90;;;;;;5027874;28;20053;-71
2023/12/13 02:20:15;;;;;;;3.63;0.50;;;6.70;99.90;;;;;;5015310;28;20025;-71
2023/12/13 02:22:40;;;;;;;2.22;1.00;;;6.80;99.90;;;;;;5031644;28;20041;-71
2023/12/13 02:25:14;;;;;;;0.35;0.35;;;6.90;99.90;;;;;;5017767;28;20044;-71
2023/12/13 02:27:42;;;;;;;2.85;0.73;;;7.00;99.90;;;;;;5029770;28;20059;-71
2023/12/13 02:30:09;;;;;;;5.65;0.80;;;7.00;99.90;;;;;;5016287;28;20390;-71
2023/12/13 02:32:36;;;;;;;2.17;1.20;;;7.00;99.90;;;;;;5025799;28;20071;-72
2023/12/13 02:35:03;;;;;;;0.82;0.75;;;7.10;99.90;;;;;;5014153;28;20316;-71
2023/12/13 02:37:29;;;;;;;0.38;0.38;;;7.10;99.90;;;;;;5024526;28;20096;-71
2023/12/13 02:39:56;;;;;;;0.65;0.60;;;7.10;99.90;;;;;;5011948;28;20489;-72
2023/12/13 02:42:22;;;;;;;0.68;0.50;;;7.10;99.90;;;;;;5031706;28;20061;-71
2023/12/13 02:44:48;;;;;;;0.75;0.63;;;7.10;99.90;;;;;;5012697;28;20184;-71
2023/12/13 02:47:13;;;;;;;0.68;0.68;;;7.20;99.90;;;;;;5027966;28;20040;-71
2023/12/13 02:49:39;;;;;;;0.45;0.45;;;7.30;99.90;;;;;;5018297;28;20567;-71
2023/12/13 02:52:05;;;;;;;1.40;1.08;;;7.30;99.90;;;;;;5028937;28;20044;-72
2023/12/13 02:54:31;;;;;;;2.45;0.40;;;7.30;99.90;;;;;;5024394;28;20107;-71
2023/12/13 02:56:56;;;;;;;0.68;0.68;;;7.20;99.90;;;;;;5025978;28;20120;-71
2023/12/13 02:59:22;;;;;;;0.65;0.63;;;7.10;99.90;;;;;;5021948;28;20043;-71
2023/12/13 03:01:47;;;;;;;0.57;0.55;;;7.20;99.90;;;;;;5017265;28;20037;-71
2023/12/13 03:04:13;;;;;;;1.52;0.63;;;7.20;99.90;;;;;;5024950;28;20068;-71
2023/12/13 03:06:39;;;;;;;1.08;0.90;;;7.20;99.90;;;;;;5009262;28;20075;-72
2023/12/13 03:09:04;;;;;;;1.58;0.80;;;7.30;99.90;;;;;;5024307;28;20775;-72
2023/12/13 03:11:30;;;;;;;0.65;0.63;;;7.40;99.90;;;;;;5015165;28;20037;-72
2023/12/13 03:13:56;;;;;;;2.72;1.88;;;7.50;99.90;;;;;;5027437;28;20064;-72
2023/12/13 03:16:22;;;;;;;0.57;0.55;;;7.50;99.90;;;;;;5013901;28;20084;-72
2023/12/13 03:18:47;;;;;;;2.25;0.75;;;7.50;99.90;;;;;;5023386;28;20059;-72
2023/12/13 03:21:13;;;;;;;1.40;0.80;;;7.40;99.90;;;;;;5018277;28;20418;-72
2023/12/13 03:23:39;;;;;;;6.82;1.35;;;7.40;99.90;;;;;;5029290;28;20631;-72
2023/12/13 03:26:04;;;;;;;0.50;0.50;;;7.40;99.90;;;;;;5011860;28;20037;-72
2023/12/13 03:28:30;;;;;;;0.90;0.90;;;7.60;99.90;;;;;;5032695;28;20412;-72
2023/12/13 03:30:56;;;;;;;0.65;0.65;;;7.80;99.90;;;;;;5015902;28;20028;-72
2023/12/13 03:33:21;;;;;;;0.90;0.90;;;7.80;99.90;;;;;;5024900;28;20029;-72
2023/12/13 03:35:47;;;;;;;0.50;0.50;;;7.90;99.90;;;;;;5029766;28;20409;-72
2023/12/13 03:38:12;;;;;;;0.75;0.75;;;7.90;99.90;;;;;;5014124;28;20090;-72
2023/12/13 03:40:38;;;;;;;0.63;0.63;;;7.90;99.90;;;;;;5028122;28;20048;-73
2023/12/13 03:43:04;;;;;;;1.58;1.48;;;8.00;99.90;;;;;;5016369;28;20040;-72
2023/12/13 03:45:29;;;;;;;0.80;0.70;;;8.10;99.90;;;;;;5025733;28;20533;-72
2023/12/13 03:47:55;;;;;;;1.23;1.13;;;8.10;99.90;;;;;;5017221;28;20501;-72
2023/12/13 03:50:21;;;;;;;0.50;0.50;;;8.10;99.90;;;;;;5028009;28;20573;-71
2023/12/13 03:52:46;;;;;;;1.50;0.68;;;8.20;99.90;;;;;;5010725;28;20033;-71
2023/12/13 03:55:12;;;;;;;0.65;0.63;;;8.20;99.90;;;;;;5027798;28;20120;-71
2023/12/13 03:57:39;;;;;;;1.52;0.88;;;8.20;99.90;;;;;;5013438;28;20037;-71
2023/12/13 04:00:06;;;;;;;0.93;0.82;;;8.10;99.90;;;;;;5021526;28;20033;-72
2023/12/13 04:02:32;;;;;;;1.20;1.08;;;8.10;99.90;;;;;;5018322;28;20045;-71
2023/12/13 04:04:58;;;;;;;2.10;1.20;;;8.10;99.90;;;;;;5029867;28;20045;-71
2023/12/13 04:07:23;;;;;;;2.00;1.35;;;8.20;99.90;;;;;;5016980;28;20120;-72
2023/12/13 04:09:49;;;;;;;4.25;1.67;;;8.20;99.90;;;;;;5025688;28;20103;-70
2023/12/13 04:12:16;;;;;;;2.25;1.88;;;8.30;99.90;;;;;;5015299;28;20141;-71
2023/12/13 04:14:41;;;;;;;1.13;0.95;;;8.30;99.90;;;;;;5027973;28;20035;-72
2023/12/13 04:17:07;;;;;;;2.08;1.45;;;8.30;99.90;;;;;;5029557;28;20420;-71
2023/12/13 04:19:33;;;;;;;2.67;1.65;;;8.30;99.90;;;;;;5013429;28;20100;-71
2023/12/13 04:21:59;;;;;;;2.70;1.50;;;8.40;99.90;;;;;;5031229;28;20458;-70
2023/12/13 04:24:25;;;;;;;8.88;2.03;;;8.40;99.90;;;;;;5019891;28;20037;-70
2023/12/13 04:26:50;;;;;;;1.80;1.55;;;8.40;99.90;;;;;;5029415;28;20049;-71
2023/12/13 04:29:16;;;;;;;3.42;1.25;;;8.50;99.90;;;;;;5024527;28;20036;-72
2023/12/13 04:31:42;;;;;;;3.47;1.52;;;8.50;99.90;;;;;;5026402;28;20098;-72
2023/12/13 04:34:08;;;;;;;2.25;2.00;;;8.50;99.90;;;;;;5011108;28;20090;-73
2023/12/13 04:36:33;;;;;;;4.50;2.85;;;8.50;99.90;;;;;;5027157;28;20044;-71
2023/12/13 04:38:59;;;;;;;11.68;2.50;;;8.50;99.90;;;;;;5009824;28;20752;-72
2023/12/13 04:41:25;;;;;;;1.85;1.73;;;8.50;99.90;;;;;;5028418;28;20036;-72
2023/12/13 04:43:51;;;;;;;3.90;3.10;;;8.50;99.90;;;;;;5018184;28;20041;-72
2023/12/13 04:46:17;;;;;;;4.32;2.33;;;8.50;99.90;;;;;;5021942;28;20029;-71
2023/12/13 04:48:43;;;;;;;6.05;3.33;;;8.50;99.90;;;;;;5015910;28;20043;-72
2023/12/13 04:51:08;;;;;;;6.93;2.85;;;8.50;99.90;;;;;;5026967;28;20037;-70
2023/12/13 04:53:34;;;;;;;6.40;2.60;;;8.60;99.90;;;;;;5015270;28;20152;-71
2023/12/13 04:56:00;;;;;;;4.53;3.28;;;8.60;99.90;;;;;;5031309;28;20029;-72
2023/12/13 04:58:27;;;;;;;7.88;3.78;;;8.60;99.90;;;;;;5026656;28;20400;-72
2023/12/13 05:00:52;;;;;;;3.17;2.50;;;8.60;99.90;;;;;;5015607;28;20569;-71
2023/12/13 05:03:18;;;;;;;4.22;2.33;;;8.60;99.90;;;;;;5026220;28;20042;-71
2023/12/13 05:05:44;;;;;;;3.85;1.73;;;8.60;99.90;;;;;;5006756;28;20120;-72
2023/12/13 05:08:12;;;;;;;3.83;2.63;;;8.60;99.90;;;;;;5025838;28;20203;-71
2023/12/13 05:10:43;;;;;;;6.40;4.10;;;8.60;99.90;;;;;;5013882;28;20504;-71
2023/12/13 05:13:09;;;;;;;3.72;3.35;;;8.60;99.90;;;;;;5022480;28;20045;-71
2023/12/13 05:15:34;;;;;;;5.13;2.25;;;8.60;99.90;;;;;;5007573;28;20083;-71
2023/12/13 05:18:00;;;;;;;6.38;3.28;;;8.60;99.90;;;;;;5025643;28;20026;-71
2023/12/13 05:20:26;;;;;;;8.27;3.03;;;8.60;99.90;;;;;;5013978;28;20541;-71
2023/12/13 05:22:51;;;;;;;8.02;3.42;;;8.70;99.90;;;;;;5025903;28;20047;-71
2023/12/13 05:25:17;;;;;;;6.75;4.53;;;8.60;99.90;;;;;;5012879;28;20047;-71
2023/12/13 05:27:44;;;;;;;4.22;2.95;;;8.60;99.90;;;;;;5027595;28;20053;-72
2023/12/13 05:30:10;;;;;;;11.15;4.03;;;8.60;99.90;;;;;;5020385;28;20033;-71
2023/12/13 05:32:36;;;;;;;6.30;3.70;;;8.60;99.90;;;;;;5025384;28;20668;-71
2023/12/13 05:35:03;;;;;;;8.25;4.72;;;8.70;99.90;;;;;;5017282;28;20040;-70
2023/12/13 05:37:29;;;;;;;9.85;4.43;;;8.60;99.90;;;;;;5027555;28;20366;-70
2023/12/13 05:39:54;;;;;;;11.15;6.45;;;8.60;99.90;;;;;;5019602;28;20040;-71
2023/12/13 05:42:20;;;;;;;6.60;4.38;;;8.70;99.90;;;;;;5021774;28;20041;-71
2023/12/13 05:44:46;;;;;;;4.35;3.35;;;8.70;99.90;;;;;;5028197;28;20347;-72
2023/12/13 05:47:13;;;;;;;6.18;4.97;;;8.70;99.90;;;;;;5013432;28;20033;-70
2023/12/13 05:49:38;;;;;;;6.43;3.50;;;8.70;99.90;;;;;;5025766;28;20029;-70
2023/12/13 05:52:04;;;;;;;9.50;4.38;;;8.70;99.90;;;;;;5010005;28;20048;-70
2023/12/13 05:54:30;;;;;;;4.57;3.90;;;8.70;99.90;;;;;;5024300;28;20040;-70
2023/12/13 05:56:56;;;;;;;9.40;5.05;;;8.60;99.90;;;;;;5015098;28;20052;-71
2023/12/13 05:59:21;;;;;;;6.97;3.25;;;8.60;99.90;;;;;;5024172;28;20078;-71
2023/12/13 06:01:47;;;;;;;4.07;2.55;;;8.60;99.90;;;;;;5017095;28;20042;-70
2023/12/13 06:04:12;;;;;;;8.43;5.18;;;8.60;99.90;;;;;;5026763;28;20045;-70
2023/12/13 06:06:45;;;;;;;5.40;2.90;;;8.60;99.90;;;;;;5010734;28;20030;-71
2023/12/13 06:09:12;;;;;;;4.75;3.40;;;8.60;99.90;;;;;;5029985;28;20021;-71
2023/12/13 06:11:38;;;;;;;6.55;3.33;;;8.60;99.90;;;;;;5013207;28;20479;-71
2023/12/13 06:14:03;;;;;;;7.72;3.22;;;8.60;99.90;;;;;;5023292;28;20084;-71
2023/12/13 06:16:29;;;;;;;8.75;4.47;;;8.60;99.90;;;;;;5012964;28;20551;-71
2023/12/13 06:18:55;;;;;;;9.27;4.60;;;8.60;99.90;;;;;;5026907;28;20047;-71
2023/12/13 06:21:20;;;;;;;6.38;3.63;;;8.60;99.90;;;;;;5014438;28;20067;-71
2023/12/13 06:23:46;;;;;;;5.97;3.90;;;8.60;99.90;;;;;;5019861;28;20038;-72
2023/12/13 06:26:11;;;;;;;10.27;4.30;;;8.60;99.90;;;;;;5027195;28;20049;-72
2023/12/13 06:28:37;;;;;;;4.03;3.00;;;8.60;99.90;;;;;;5017174;28;20037;-70
2023/12/13 06:31:03;;;;;;;4.63;3.72;;;8.60;99.90;;;;;;5023582;28;20029;-70
2023/12/13 06:33:31;;;;;;;3.92;3.53;;;8.60;99.90;;;;;;5016086;28;20095;-72
2023/12/13 06:35:57;;;;;;;7.00;4.03;;;8.60;99.90;;;;;;5030442;28;20033;-72
2023/12/13 06:38:23;;;;;;;5.38;3.95;;;8.60;99.90;;;;;;5018422;28;20042;-72
2023/12/13 06:40:48;;;;;;;5.53;3.80;;;8.60;99.90;;;;;;5025798;28;20032;-72
2023/12/13 06:43:14;;;;;;;6.00;3.13;;;8.60;99.90;;;;;;5016689;28;20195;-72
2023/12/13 06:45:39;;;;;;;7.10;3.83;;;8.60;99.90;;;;;;5024747;28;20064;-71
2023/12/13 06:48:06;;;;;;;6.00;3.40;;;8.70;99.90;;;;;;5011502;28;20186;-72
2023/12/13 06:50:32;;;;;;;4.32;3.00;;;8.60;99.90;;;;;;5024987;28;20033;-72
2023/12/13 06:52:58;;;;;;;10.27;4.32;;;8.70;99.90;;;;;;5008245;28;20738;-72
2023/12/13 06:55:24;;;;;;;6.90;3.38;;;8.70;99.90;;;;;;5026199;28;20266;-71
2023/12/13 06:57:50;;;;;;;14.02;3.25;;;8.70;99.90;;;;;;5012172;28;20029;-72
2023/12/13 07:00:16;;;;;;;4.85;3.25;;;8.70;99.90;;;;;;5027801;28;20535;-72
2023/12/13 07:02:42;;;;;;;3.55;3.22;;;8.70;99.90;;;;;;5013615;28;20033;-72
2023/12/13 07:05:08;;;;;;;5.28;2.60;;;8.70;99.90;;;;;;5016776;28;21592;-71
2023/12/13 07:07:34;;;;;;;7.35;3.20;;;8.60;99.90;;;;;;5027016;28;20033;-71
2023/12/13 07:10:00;;;;;;;4.25;2.92;;;8.60;99.90;;;;;;5019296;28;20040;-71
2023/12/13 07:12:28;;;;;;;5.60;2.53;;;8.60;99.90;;;;;;5026483;28;20032;-70
2023/12/13 07:14:56;;;;;;;5.50;3.30;;;8.60;99.90;;;;;;5024677;28;20009;-71
2023/12/13 07:17:22;;;;;;;3.63;2.75;;;8.60;99.90;;;;;;5040648;28;20266;-71
2023/12/13 07:19:48;;;;;;;6.13;3.78;;;8.60;99.90;;;;;;5017511;28;20756;-71
2023/12/13 07:22:13;;;;;;;8.18;4.40;;;8.60;99.90;;;;;;5026678;28;20052;-70
2023/12/13 07:24:39;;;;;;;6.35;3.55;;;8.50;99.90;;;;;;5014846;28;20037;-70
2023/12/13 07:27:05;;;;;;;6.18;4.60;;;8.50;99.90;;;;;;5025526;28;20472;-72
2023/12/13 07:29:32;;;;;;;5.03;2.85;;;8.50;99.90;;;;;;5020054;28;20033;-71
2023/12/13 07:31:58;;;;;;;6.43;4.20;;;8.50;99.90;;;;;;5037202;28;20025;-71
2023/12/13 07:34:23;;;;;;;4.18;2.53;;;8.60;99.90;;;;;;5028304;28;20040;-70
2023/12/13 07:36:49;;;;;;;5.97;3.15;;;8.50;99.90;;;;;;5042122;28;20072;-70
2023/12/13 07:39:15;;;;;;;6.47;3.85;;;8.50;99.90;;;;;;5020005;28;20099;-70
2023/12/13 07:41:41;;;;;;;5.38;3.63;;;8.60;99.90;;;;;;5036397;28;20041;-70
2023/12/13 07:44:07;;;;;;;4.30;2.63;;;8.60;99.90;;;;;;5015959;28;20087;-70
2023/12/13 07:46:33;;;;;;;4.40;2.78;;;8.60;99.90;;;;;;5026238;28;20576;-70
2023/12/13 07:49:03;;;;;;;7.63;3.58;;;8.60;99.90;;;;;;5026461;28;20033;-70
2023/12/13 07:51:30;;;;;;;5.50;3.40;;;8.60;99.90;;;;;;5012138;28;20037;-70
2023/12/13 07:53:58;;;;;;;5.07;2.95;;;8.50;99.90;;;;;;5019106;28;20051;-70
2023/12/13 07:56:25;;;;;;;15.23;3.00;;;8.60;99.90;;;;;;5013332;28;20030;-70
2023/12/13 07:58:51;;;;;;;3.90;3.50;;;8.60;99.90;;;;;;5024490;28;20269;-71
2023/12/13 08:01:16;;;;;;;4.22;2.97;;;8.50;99.90;;;;;;5014142;28;20071;-71
2023/12/13 08:03:43;;;;;;;5.35;2.38;;;8.50;99.90;;;;;;5030057;28;20060;-71
2023/12/13 08:06:18;;;;;;;7.07;2.88;;;8.50;99.90;;;;;;5009792;28;20060;-71
2023/12/13 08:08:44;;;;;;;7.00;3.60;;;8.50;99.90;;;;;;5023444;28;20029;-71
2023/12/13 08:11:11;;;;;;;4.65;3.00;;;8.50;99.90;;;;;;5015519;28;20033;-71
2023/12/13 08:13:36;;;;;;;4.95;2.83;;;8.50;99.90;;;;;;5019830;28;20254;-71
2023/12/13 08:16:02;;;;;;;3.92;2.22;;;8.50;99.90;;;;;;5014276;28;20549;-71
2023/12/13 08:18:28;;;;;;;5.43;2.55;;;8.50;99.90;;;;;;5023203;28;20160;-72
2023/12/13 08:20:54;;;;;;;2.78;1.92;;;8.60;99.90;;;;;;5003435;28;20759;-71
2023/12/13 08:23:19;;;;;;;5.05;1.95;;;8.50;99.90;;;;;;5019318;28;20029;-70
2023/12/13 08:25:45;;;;;;;2.78;1.83;;;8.50;99.90;;;;;;5005889;28;20489;-72
2023/12/13 08:28:11;;;;;;;3.53;2.58;;;8.60;99.90;;;;;;5008266;28;20561;-72
2023/12/13 08:30:36;;;;;;;3.40;2.30;;;8.60;99.90;;;;;;5004851;28;20073;-69
2023/12/13 08:33:02;;;;;;;3.65;1.50;;;8.60;99.90;;;;;;5013231;28;20103;-70
2023/12/13 08:35:29;;;;;;;1.50;1.40;;;8.60;99.90;;;;;;5003834;28;20083;-70
2023/12/13 08:37:54;;;;;;;4.35;1.92;;;8.60;99.90;;;;;;4995474;28;20448;-70
2023/12/13 08:40:20;;;;;;;1.77;1.02;;;8.60;99.90;;;;;;5005423;28;20703;-70
2023/12/13 08:42:46;;;;;;;4.15;1.48;;;8.60;99.90;;;;;;4996042;28;20064;-69
2023/12/13 08:45:13;;;;;;;8.57;1.05;;;8.60;99.90;;;;;;5012948;28;20041;-72
2023/12/13 08:47:39;;;;;;;2.42;1.50;;;8.70;99.90;;;;;;4996436;28;20037;-69
2023/12/13 08:50:06;;;;;;;2.55;1.20;;;8.70;99.90;;;;;;5015027;28;20017;-73
2023/12/13 08:52:32;;;;;;;1.02;0.82;;;8.70;99.90;;;;;;5008210;28;21003;-69
2023/12/13 08:54:57;;;;;;;1.52;1.15;;;8.70;99.90;;;;;;5012794;28;20052;-73
2023/12/13 08:57:23;;;;;;;1.92;0.88;;;8.70;99.90;;;;;;5007842;28;20047;-71
2023/12/13 08:59:49;;;;;;;1.45;1.13;;;8.80;99.90;;;;;;5014937;28;20048;-72
2023/12/13 09:02:15;;;;;;;2.08;1.20;;;8.80;99.90;;;;;;5005748;28;20037;-70
2023/12/13 09:04:41;;;;;;;1.27;0.95;;;8.90;99.90;;;;;;5017775;28;20041;-69
2023/12/13 09:07:07;;;;;;;1.80;0.68;;;9.00;99.90;;;;;;5006315;28;20056;-69
2023/12/13 09:09:32;;;;;;;0.80;0.80;;;9.10;99.90;;;;;;5014733;28;20124;-69
2023/12/13 09:11:59;;;;;;;1.10;1.05;;;9.10;99.90;;;;;;5007097;28;20025;-69
2023/12/13 09:14:27;;;;;;;1.83;1.27;;;9.10;99.90;;;;;;5000882;28;20044;-69
2023/12/13 09:16:53;;;;;;;1.10;1.08;;;9.10;99.90;;;;;;5006897;28;20815;-68
2023/12/13 09:19:19;;;;;;;2.75;1.02;;;9.10;99.90;;;;;;5004671;28;20172;-68
2023/12/13 09:21:44;;;;;;;2.70;1.45;;;9.10;99.90;;;;;;5013989;28;20144;-68
2023/12/13 09:24:10;;;;;;;1.95;1.23;;;9.10;99.90;;;;;;5005679;28;20034;-69
2023/12/13 09:26:37;;;;;;;2.30;1.65;;;9.20;99.90;;;;;;5014537;28;20112;-70
2023/12/13 09:29:03;;;;;;;0.95;0.93;;;9.20;99.90;;;;;;5004846;28;20037;-71
2023/12/13 09:31:29;;;;;;;2.15;0.98;;;9.40;99.90;;;;;;5021320;28;20037;-68
2023/12/13 09:33:54;;;;;;;2.05;1.33;;;9.40;99.90;;;;;;4999818;28;20049;-68
2023/12/13 09:36:21;;;;;;;3.30;1.65;;;9.40;99.90;;;;;;5022680;28;20695;-70
2023/12/13 09:38:47;;;;;;;1.63;1.13;;;9.50;99.90;;;;;;5008868;28;20037;-70
2023/12/13 09:41:30;;;;;;;1.45;1.33;;;9.50;99.90;;;;;;5015734;28;20041;-69
2023/12/13 09:43:57;;;;;;;1.77;1.50;;;9.50;99.90;;;;;;5008962;28;20742;-70
2023/12/13 09:46:24;;;;;;;2.05;1.38;;;9.60;99.90;;;;;;5017586;28;20049;-69
2023/12/13 09:48:51;;;;;;;2.83;1.25;;;9.60;99.90;;;;;;5007728;28;20784;-69
2023/12/13 09:51:19;;;;;;;2.00;1.63;;;9.50;99.90;;;;;;5012876;28;20117;-68
2023/12/13 09:53:49;;;;;;;2.67;1.45;;;9.50;99.90;;;;;;5003287;28;20812;-68
2023/12/13 09:56:15;;;;;;;2.45;1.17;;;9.50;99.90;;;;;;5016392;28;20052;-69
2023/12/13 09:58:41;;;;;;;3.33;1.88;;;9.60;99.90;;;;;;5008894;28;20052;-70
2023/12/13 10:01:12;;;;;;;2.25;2.05;;;9.60;99.90;;;;;;5010607;28;20068;-69
2023/12/13 10:03:39;;;;;;;0.88;0.88;;;9.50;99.90;;;;;;5004911;28;20146;-69
2023/12/13 10:06:07;;;;;;;1.55;1.33;;;9.40;99.90;;;;;;5013535;28;20033;-71
2023/12/13 10:08:33;;;;;;;2.10;1.60;;;9.40;99.90;;;;;;5016336;28;20037;-71
2023/12/13 10:10:59;;;;;;;2.00;1.67;;;9.30;99.90;;;;;;5008353;28;20029;-71
2023/12/13 10:13:26;;;;;;;1.60;1.50;;;9.20;99.90;;;;;;5016448;28;20044;-70
2023/12/13 10:15:52;;;;;;;1.30;0.95;;;9.20;99.90;;;;;;5007249;28;20038;-70
2023/12/13 10:18:18;;;;;;;1.70;1.27;;;9.20;99.90;;;;;;5019670;28;20078;-69
2023/12/13 10:20:45;;;;;;;5.20;1.80;;;9.10;99.90;;;;;;4997725;28;20037;-68
2023/12/13 10:23:11;;;;;;;4.07;1.23;;;9.10;99.90;;;;;;5015671;28;20032;-68
2023/12/13 10:25:37;;;;;;;2.40;1.40;;;9.10;99.90;;;;;;5011223;28;20065;-71
2023/12/13 10:28:04;;;;;;;2.20;1.33;;;9.10;99.90;;;;;;5018631;28;20109;-68
2023/12/13 10:30:31;;;;;;;2.35;2.15;;;9.10;99.90;;;;;;5019390;28;20101;-67
2023/12/13 10:32:58;;;;;;;2.40;1.58;;;9.10;99.90;;;;;;5021407;28;20040;-68
2023/12/13 10:35:23;;;;;;;1.70;1.30;;;9.20;99.90;;;;;;5004923;28;20029;-68
2023/12/13 10:37:51;;;;;;;1.27;1.17;;;9.30;99.90;;;;;;5018964;28;20037;-68
2023/12/13 10:40:20;;;;;;;2.95;1.23;;;9.40;99.90;;;;;;4999179;28;20083;-68
2023/12/13 10:42:51;;;;;;;1.83;1.17;;;9.50;99.90;;;;;;5018093;28;20493;-67
2023/12/13 10:45:18;;;;;;;2.03;1.40;;;9.40;99.90;;;;;;5002161;28;20298;-69
2023/12/13 10:47:45;;;;;;;1.23;1.08;;;9.50;99.90;;;;;;5003890;28;21663;-69
2023/12/13 10:50:11;;;;;;;2.20;1.60;;;9.50;99.90;;;;;;5009900;28;20037;-69
2023/12/13 10:52:38;;;;;;;3.33;1.73;;;9.60;99.90;;;;;;5003727;28;20044;-68
2023/12/13 10:55:08;;;;;;;7.80;1.45;;;9.50;99.90;;;;;;5005197;28;20033;-69
2023/12/13 10:57:35;;;;;;;;;;;9.50;99.90;;;;;;5002416;28;20029;-67
2023/12/13 11:00:03;;;;;;;1.10;1.10;;;9.50;99.90;;;;;;5013596;28;19916;-68
2023/12/13 11:02:38;;;;;;;1.90;1.70;;;9.60;99.90;;;;;;5001718;28;20419;-68
2023/12/13 11:05:04;;;;;;;1.67;1.30;;;9.60;99.90;;;;;;5010159;28;20037;-67
2023/12/13 11:07:30;;;;;;;0.85;0.77;;;9.50;99.90;;;;;;4997356;28;20108;-68
2023/12/13 11:09:55;;;;;;;0.88;0.88;;;9.50;99.90;;;;;;5016531;28;20048;-69
2023/12/13 11:12:21;;;;;;;2.30;0.98;;;9.50;99.90;;;;;;5009913;28;20030;-69
2023/12/13 11:14:50;;;;;;;2.05;1.30;;;9.50;99.90;;;;;;5015246;28;20120;-68
2023/12/13 11:17:18;;;;;;;2.97;1.52;;;9.50;99.90;;;;;;5002780;28;20487;-67
2023/12/13 11:19:46;;;;;;;1.83;1.35;;;9.50;99.90;;;;;;5016607;28;20044;-70
2023/12/13 11:22:12;;;;;;;1.25;0.70;;;9.50;99.90;;;;;;5002087;28;20502;-69
2023/12/13 11:24:41;;;;;;;0.95;0.60;;;9.40;99.90;;;;;;5026372;28;20064;-71
2023/12/13 11:27:12;;;;;;;0.70;0.60;;;9.50;99.90;;;;;;5009329;28;20046;-68
2023/12/13 11:29:44;;;;;;;0.80;0.60;;;9.50;99.90;;;;;;5019803;28;20029;-71
2023/12/13 11:32:12;;;;;;;0.40;0.40;;;9.40;99.90;;;;;;5010663;28;20033;-68
2023/12/13 11:34:42;;;;;;;0.40;0.38;;;9.40;99.90;;;;;;5009978;28;20151;-68
2023/12/13 11:37:09;;;;;;;1.13;0.55;;;9.50;99.90;;;;;;5009998;28;20056;-69
2023/12/13 11:39:36;;;;;;;0.63;0.52;;;9.60;99.90;;;;;;5021008;28;20132;-70
2023/12/13 11:42:04;;;;;;;0.65;0.65;;;9.70;99.90;;;;;;5008084;28;20141;-71
2023/12/13 11:44:31;;;;;;;0.63;0.63;;;9.80;99.90;;;;;;5021979;28;20028;-70
2023/12/13 11:46:59;;;;;;;0.75;0.63;;;9.90;99.90;;;;;;5013522;28;20028;-69
2023/12/13 11:49:26;;;;;;;0.77;0.77;;;9.80;99.90;;;;;;5012112;28;20501;-72
2023/12/13 11:51:53;;;;;;;0.20;0.20;;;9.60;99.90;;;;;;5021604;28;20211;-68
2023/12/13 11:54:19;;;;;;;0.20;0.20;;;9.50;99.90;;;;;;5003991;28;20025;-69
2023/12/13 11:56:45;;;;;;;0.20;0.20;;;9.30;99.90;;;;;;5023247;28;20087;-70
2023/12/13 11:59:11;;;;;;;0.50;0.40;;;9.20;99.90;;;;;;5015142;28;20064;-71
2023/12/13 12:01:37;;;;;;;0.30;0.30;;;9.10;99.90;;;;;;5015225;28;20266;-70
2023/12/13 12:04:03;;;;;;;0.55;0.55;;;8.90;99.90;;;;;;5010783;28;20056;-71
2023/12/13 12:06:29;;;;;;;0.10;0.10;;;8.90;99.90;;;;;;5023062;28;20531;-72
2023/12/13 12:08:55;;;;;;;0.15;0.15;;;8.90;99.90;;;;;;5008342;28;20115;-70
2023/12/13 12:11:24;;;;;;;1.80;0.70;;;8.80;99.90;;;;;;5024798;28;20028;-71
2023/12/13 12:13:51;;;;;;;;;;;8.80;99.90;;;;;;5006337;28;20035;-70
2023/12/13 12:16:17;;;;;;;0.13;0.10;;;8.70;99.90;;;;;;5016636;28;19925;-70
2023/12/13 12:18:43;;;;;;;0.90;0.30;;;8.70;99.90;;;;;;5008951;28;20627;-69
2023/12/13 12:21:10;;;;;;;0.17;0.17;;;8.70;99.90;;;;;;5017649;28;20332;-69
2023/12/13 12:23:38;;;;;;;0.30;0.30;;;8.70;99.90;;;;;;5013998;28;20025;-70
2023/12/13 12:26:08;;;;;;;0.40;0.40;;;8.90;99.90;;;;;;5019689;28;20030;-71
2023/12/13 12:28:34;;;;;;;;;;;9.00;99.90;;;;;;4990481;28;20122;-69
2023/12/13 12:30:59;;;;;;;0.28;0.22;;;9.00;99.90;;;;;;4997122;28;20569;-69
2023/12/13 12:33:25;;;;;;;0.10;0.10;;;8.90;99.90;;;;;;5000742;28;20041;-70
2023/12/13 12:35:51;;;;;;;0.30;0.30;;;8.90;99.90;;;;;;4987722;28;20029;-69
2023/12/13 12:38:17;;;;;;;0.17;0.17;;;8.80;99.90;;;;;;5002691;28;20099;-71
2023/12/13 12:40:44;;;;;;;0.70;0.52;;;8.70;99.90;;;;;;4984694;28;20044;-68
2023/12/13 12:43:11;;;;;;;0.15;0.15;;;8.70;99.90;;;;;;5005889;28;20048;-69
2023/12/13 12:45:36;;;;;;;0.10;0.10;;;8.70;99.90;;;;;;4990901;28;20038;-68
2023/12/13 12:48:02;;;;;;;0.10;0.10;;;8.80;99.90;;;;;;4993483;28;20041;-69
2023/12/13 12:50:28;;;;;;;0.10;0.10;;;8.90;99.90;;;;;;4991772;28;20025;-69
2023/12/13 12:52:55;;;;;;;0.13;0.13;;;9.00;99.90;;;;;;5002698;28;20157;-68